X  Fechar Metar - Info de Aeroporto        LYNI Nis Airport
Temperatura
79°F Temperatura
46°F Ptº Orvalho
32% Humidade



Vento
3 MPH
6 KM/H
1 M/S
3 NÓS



350°
N
Condições Atuais

Mostly Sunny Principalmente ensolarado
Pressão 1017 (hPa) - 30.03 (inHg)
Visibilidade 6 (milha) - 10 (km)
Aeroporto
Código-Aeropoto LYNI

Localização: Nis Airport
Distância: 63 (mi)

Metar:
METAR LYNI 271130Z 35003KT 9999 FEW040 26/08 Q1018 NOSIG

Hora: 27-05-2024 13:30 CEST